createdAt,value
2017-11-19T00:00:44.069Z,0.00
2017-11-19T00:02:37.174Z,0.00
2017-11-19T00:03:36.961Z,0.00
2017-11-19T00:05:30.311Z,0.00
2017-11-19T00:06:29.958Z,0.00
2017-11-19T00:08:23.266Z,0.00
2017-11-19T00:09:23.209Z,0.00
2017-11-19T00:11:16.331Z,0.00
2017-11-19T00:12:16.185Z,0.00
2017-11-19T00:14:09.409Z,0.00
2017-11-19T00:15:09.220Z,0.00
2017-11-19T00:17:02.370Z,0.00
2017-11-19T00:18:02.206Z,0.00
2017-11-19T00:19:55.500Z,0.00
2017-11-19T00:20:55.392Z,0.00
2017-11-19T00:22:49.158Z,0.00
2017-11-19T00:23:48.471Z,0.00
2017-11-19T00:25:41.647Z,0.00
2017-11-19T00:26:41.478Z,0.00
2017-11-19T00:28:34.674Z,0.00
2017-11-19T00:29:34.559Z,0.00
2017-11-19T00:31:27.739Z,0.00
2017-11-19T00:32:27.483Z,0.00
2017-11-19T00:34:20.824Z,0.00
2017-11-19T00:35:20.694Z,0.00
2017-11-19T00:37:13.848Z,0.00
2017-11-19T00:38:13.648Z,0.00
2017-11-19T00:40:06.946Z,0.00
2017-11-19T00:41:07.427Z,0.00
2017-11-19T00:43:00.468Z,0.00
2017-11-19T00:44:01.203Z,0.00
2017-11-19T00:45:55.176Z,0.00
2017-11-19T00:46:54.984Z,0.00
2017-11-19T00:48:48.659Z,0.00
2017-11-19T00:49:48.061Z,0.00
2017-11-19T00:51:41.230Z,0.00
2017-11-19T00:52:41.069Z,0.00
2017-11-19T00:54:34.227Z,0.00
2017-11-19T00:55:34.031Z,0.00
2017-11-19T00:57:27.899Z,0.00
2017-11-19T00:58:27.706Z,0.00
2017-11-19T01:00:22.413Z,0.00
2017-11-19T01:01:22.184Z,0.00
2017-11-19T01:03:15.587Z,0.00
2017-11-19T01:04:15.386Z,0.00
2017-11-19T01:06:09.121Z,0.00
2017-11-19T01:07:08.778Z,0.00
2017-11-19T01:09:02.641Z,0.00
2017-11-19T01:10:02.418Z,0.00
2017-11-19T01:11:57.899Z,0.00
2017-11-19T01:12:57.292Z,0.00
2017-11-19T01:14:50.507Z,0.00
2017-11-19T01:15:50.243Z,0.00
2017-11-19T01:17:43.629Z,0.00
2017-11-19T01:18:43.429Z,0.00
2017-11-19T01:20:36.800Z,0.00
2017-11-19T01:21:36.901Z,0.00
2017-11-19T01:23:44.638Z,0.00
2017-11-19T01:24:29.639Z,0.00
2017-11-19T01:26:22.831Z,0.00
2017-11-19T01:27:22.700Z,0.00
2017-11-19T01:29:15.913Z,0.00
2017-11-19T01:30:15.743Z,0.00
2017-11-19T01:32:10.224Z,0.00
2017-11-19T01:33:09.352Z,0.00
2017-11-19T01:35:02.559Z,0.00
2017-11-19T01:36:02.349Z,0.00
2017-11-19T01:37:55.616Z,0.00
2017-11-19T01:38:55.475Z,0.00
2017-11-19T01:40:48.633Z,0.00
2017-11-19T01:41:48.521Z,0.00
2017-11-19T01:43:41.774Z,0.00
2017-11-19T01:44:41.546Z,0.00
2017-11-19T01:46:36.269Z,0.00
2017-11-19T01:47:36.277Z,0.00
2017-11-19T01:49:29.465Z,0.00
2017-11-19T01:50:29.156Z,0.00
2017-11-19T01:52:22.957Z,0.00
2017-11-19T01:53:22.385Z,0.00
2017-11-19T01:55:15.534Z,0.00
2017-11-19T01:56:15.413Z,0.00
2017-11-19T01:58:08.586Z,0.00
2017-11-19T01:59:08.392Z,0.00
2017-11-19T02:01:01.650Z,0.00
2017-11-19T02:02:01.421Z,0.00
2017-11-19T02:03:56.159Z,0.00
2017-11-19T02:04:56.054Z,0.00
2017-11-19T02:06:49.715Z,0.00
2017-11-19T02:07:49.062Z,0.00
2017-11-19T02:09:42.764Z,0.00
2017-11-19T02:10:42.559Z,0.00
2017-11-19T02:12:37.316Z,0.00
2017-11-19T02:13:37.180Z,0.00
2017-11-19T02:15:30.372Z,0.00
2017-11-19T02:16:30.431Z,0.00
2017-11-19T02:18:23.369Z,0.00
2017-11-19T02:19:23.255Z,0.00
2017-11-19T02:21:16.848Z,0.00
2017-11-19T02:22:16.321Z,0.00
2017-11-19T02:24:09.617Z,0.00
2017-11-19T02:25:09.424Z,0.00
2017-11-19T02:27:02.567Z,0.00
2017-11-19T02:28:02.440Z,0.00
2017-11-19T02:29:55.696Z,0.00
2017-11-19T02:30:55.399Z,0.00
2017-11-19T02:32:48.630Z,0.00
2017-11-19T02:33:48.694Z,0.00
2017-11-19T02:35:41.757Z,0.00
2017-11-19T02:36:41.704Z,0.00
2017-11-19T02:38:34.821Z,0.00
2017-11-19T02:39:34.678Z,0.00
2017-11-19T02:41:27.887Z,0.00
2017-11-19T02:42:27.712Z,0.00
2017-11-19T02:44:20.925Z,0.00
2017-11-19T02:45:20.710Z,0.00
2017-11-19T02:47:13.997Z,0.00
2017-11-19T02:48:13.804Z,0.00
2017-11-19T02:50:06.994Z,0.00
2017-11-19T02:51:06.941Z,0.00
2017-11-19T02:53:00.134Z,0.00
2017-11-19T02:53:59.999Z,0.00
2017-11-19T02:55:53.678Z,0.00
2017-11-19T02:56:53.511Z,0.00
2017-11-19T02:58:47.220Z,0.00
2017-11-19T02:59:46.590Z,0.00
2017-11-19T03:01:39.825Z,0.00
2017-11-19T03:02:39.631Z,0.00
2017-11-19T03:04:32.892Z,0.00
2017-11-19T03:05:33.234Z,0.00
2017-11-19T03:07:25.911Z,0.00
2017-11-19T03:08:25.705Z,0.00
2017-11-19T03:10:20.496Z,0.00
2017-11-19T03:11:20.434Z,0.00
2017-11-19T03:13:14.024Z,0.00
2017-11-19T03:14:14.231Z,0.00
2017-11-19T03:16:07.207Z,0.00
2017-11-19T03:17:06.980Z,0.00
2017-11-19T03:19:00.177Z,0.00
2017-11-19T03:20:00.101Z,0.00
2017-11-19T03:21:53.283Z,0.00
2017-11-19T03:22:53.510Z,0.00
2017-11-19T03:24:48.147Z,0.00
2017-11-19T03:25:47.764Z,0.00
2017-11-19T03:27:40.908Z,0.00
2017-11-19T03:28:40.843Z,0.00
2017-11-19T03:30:33.984Z,0.00
2017-11-19T03:31:33.812Z,0.00
2017-11-19T03:33:27.044Z,0.00
2017-11-19T03:34:26.822Z,0.00
2017-11-19T03:36:20.057Z,0.00
2017-11-19T03:37:19.966Z,0.00
2017-11-19T03:39:13.843Z,0.00
2017-11-19T03:40:13.014Z,0.00
2017-11-19T03:42:06.234Z,0.00
2017-11-19T03:43:06.077Z,0.00
2017-11-19T03:45:01.298Z,0.00
2017-11-19T03:46:01.089Z,0.00
2017-11-19T03:47:57.282Z,0.00
2017-11-19T03:48:57.154Z,0.00
2017-11-19T03:50:51.878Z,0.00
2017-11-19T03:51:51.716Z,0.00
2017-11-19T03:53:44.849Z,0.00
2017-11-19T03:54:44.789Z,0.00
2017-11-19T03:56:37.982Z,0.00
2017-11-19T03:57:38.041Z,0.00
2017-11-19T03:59:31.513Z,0.00
2017-11-19T04:00:30.876Z,0.00
2017-11-19T04:02:25.117Z,0.00
2017-11-19T04:03:24.445Z,0.00
2017-11-19T04:05:18.994Z,0.00
2017-11-19T04:06:18.947Z,0.00
2017-11-19T04:08:12.144Z,0.00
2017-11-19T04:09:12.563Z,0.00
2017-11-19T04:11:05.162Z,0.00
2017-11-19T04:12:05.060Z,0.00
2017-11-19T04:13:58.258Z,0.00
2017-11-19T04:14:58.123Z,0.00
2017-11-19T04:16:51.186Z,0.00
2017-11-19T04:17:51.052Z,0.00
2017-11-19T04:19:44.751Z,0.00
2017-11-19T04:20:44.694Z,0.00
2017-11-19T04:22:37.396Z,0.00
2017-11-19T04:23:37.313Z,0.00
2017-11-19T04:25:30.460Z,0.00
2017-11-19T04:26:30.395Z,0.00
2017-11-19T04:28:23.537Z,0.00
2017-11-19T04:29:23.468Z,0.00
2017-11-19T04:31:17.079Z,0.00
2017-11-19T04:32:16.687Z,0.00
2017-11-19T04:34:09.599Z,0.00
2017-11-19T04:35:09.696Z,0.00
2017-11-19T04:37:06.148Z,0.00
2017-11-19T04:38:06.113Z,0.00
2017-11-19T04:40:11.341Z,0.00
2017-11-19T04:41:11.288Z,0.00
2017-11-19T04:43:05.137Z,0.00
2017-11-19T04:44:04.359Z,0.00
2017-11-19T04:45:57.483Z,0.00
2017-11-19T04:46:57.438Z,0.00
2017-11-19T04:48:50.586Z,0.00
2017-11-19T04:49:50.450Z,0.00
2017-11-19T04:51:43.584Z,0.00
2017-11-19T04:52:43.419Z,0.00
2017-11-19T04:54:36.954Z,0.00
2017-11-19T04:55:36.527Z,0.00
2017-11-19T04:57:29.717Z,0.00
2017-11-19T04:58:29.671Z,0.00
2017-11-19T05:00:22.731Z,0.00
2017-11-19T05:01:22.677Z,0.00
2017-11-19T05:03:15.732Z,0.00
2017-11-19T05:04:15.676Z,0.00
2017-11-19T05:06:08.755Z,0.00
2017-11-19T05:07:09.210Z,0.00
2017-11-19T05:09:01.883Z,0.00
2017-11-19T05:10:01.825Z,0.00
2017-11-19T05:11:55.458Z,0.00
2017-11-19T05:12:54.802Z,0.00
2017-11-19T05:14:47.931Z,0.00
2017-11-19T05:15:47.900Z,0.00
2017-11-19T05:17:40.974Z,0.00
2017-11-19T05:18:40.975Z,0.00
2017-11-19T05:20:34.090Z,0.00
2017-11-19T05:21:33.990Z,0.00
2017-11-19T05:23:27.699Z,0.00
2017-11-19T05:24:27.564Z,0.00
2017-11-19T05:26:22.148Z,0.00
2017-11-19T05:27:22.083Z,0.00
2017-11-19T05:29:15.261Z,0.00
2017-11-19T05:30:15.124Z,0.00
2017-11-19T05:32:08.215Z,0.00
2017-11-19T05:33:08.152Z,0.00
2017-11-19T05:35:01.372Z,0.00
2017-11-19T05:36:01.115Z,0.00
2017-11-19T05:37:54.303Z,0.00
2017-11-19T05:38:54.325Z,0.00
2017-11-19T05:40:47.379Z,0.00
2017-11-19T05:41:47.351Z,0.00
2017-11-19T05:43:40.442Z,0.00
2017-11-19T05:44:40.398Z,0.00
2017-11-19T05:46:33.588Z,0.00
2017-11-19T05:47:33.470Z,0.00
2017-11-19T05:49:26.789Z,0.00
2017-11-19T05:50:26.471Z,0.00
2017-11-19T05:52:20.189Z,0.00
2017-11-19T05:53:19.564Z,0.00
2017-11-19T05:55:12.731Z,0.00
2017-11-19T05:56:12.641Z,0.00
2017-11-19T05:58:05.698Z,0.00
2017-11-19T05:59:06.441Z,0.00
2017-11-19T06:00:58.774Z,0.00
2017-11-19T06:01:58.720Z,0.00
2017-11-19T06:03:52.058Z,0.00
2017-11-19T06:04:51.785Z,0.00
2017-11-19T06:06:44.939Z,0.00
2017-11-19T06:07:44.893Z,0.00
2017-11-19T06:09:37.900Z,0.00
2017-11-19T06:10:37.915Z,0.00
2017-11-19T06:12:31.052Z,0.00
2017-11-19T06:13:30.952Z,0.00
2017-11-19T06:15:24.135Z,0.00
2017-11-19T06:16:23.960Z,0.00
2017-11-19T06:18:17.150Z,5.63
2017-11-19T06:19:17.465Z,5.63
2017-11-19T06:21:10.254Z,5.63
2017-11-19T06:22:10.161Z,5.63
2017-11-19T06:24:03.736Z,11.25
2017-11-19T06:25:03.753Z,11.25
2017-11-19T06:26:57.440Z,16.88
2017-11-19T06:27:56.701Z,16.88
2017-11-19T06:29:49.915Z,22.50
2017-11-19T06:30:49.830Z,22.50
2017-11-19T06:32:43.488Z,28.13
2017-11-19T06:33:43.414Z,28.13
2017-11-19T06:35:35.967Z,33.75
2017-11-19T06:36:35.939Z,39.38
2017-11-19T06:38:29.359Z,45.00
2017-11-19T06:39:28.986Z,50.63
2017-11-19T06:41:22.073Z,56.25
2017-11-19T06:42:22.087Z,61.88
2017-11-19T06:44:15.429Z,67.50
2017-11-19T06:45:15.651Z,73.13
2017-11-19T06:47:08.234Z,78.75
2017-11-19T06:48:08.203Z,84.38
2017-11-19T06:50:01.266Z,95.63
2017-11-19T06:51:01.241Z,101.25
2017-11-19T06:52:54.338Z,112.50
2017-11-19T06:53:54.317Z,112.50
2017-11-19T06:55:47.423Z,123.75
2017-11-19T06:56:47.358Z,129.38
2017-11-19T06:58:40.963Z,140.63
2017-11-19T06:59:40.911Z,140.63
2017-11-19T07:01:38.814Z,151.88
2017-11-19T07:02:38.475Z,157.50
2017-11-19T07:04:32.115Z,174.38
2017-11-19T07:05:32.141Z,174.38
2017-11-19T07:07:26.750Z,185.63
2017-11-19T07:08:26.636Z,191.25
2017-11-19T07:10:19.813Z,196.88
2017-11-19T07:11:19.670Z,202.50
2017-11-19T07:13:12.850Z,213.75
2017-11-19T07:14:13.240Z,219.38
2017-11-19T07:16:06.408Z,230.63
2017-11-19T07:17:05.779Z,230.63
2017-11-19T07:18:58.916Z,236.25
2017-11-19T07:19:59.404Z,247.50
2017-11-19T07:21:52.523Z,258.75
2017-11-19T07:22:51.921Z,264.38
2017-11-19T07:24:45.757Z,270.00
2017-11-19T07:25:44.937Z,275.63
2017-11-19T07:27:38.089Z,286.88
2017-11-19T07:28:38.039Z,292.50
2017-11-19T07:30:31.641Z,303.75
2017-11-19T07:31:31.578Z,309.38
2017-11-19T07:33:25.353Z,320.63
2017-11-19T07:34:25.237Z,326.25
2017-11-19T07:36:18.912Z,326.25
2017-11-19T07:37:19.321Z,331.88
2017-11-19T07:39:11.951Z,343.13
2017-11-19T07:40:12.411Z,365.63
2017-11-19T07:42:05.577Z,405.00
2017-11-19T07:43:05.985Z,461.25
2017-11-19T07:45:00.134Z,511.88
2017-11-19T07:46:00.104Z,506.25
2017-11-19T07:47:53.184Z,478.13
2017-11-19T07:48:53.104Z,495.00
2017-11-19T07:50:46.273Z,466.88
2017-11-19T07:51:46.152Z,472.50
2017-11-19T07:53:39.537Z,466.88
2017-11-19T07:54:39.226Z,523.13
2017-11-19T07:56:32.342Z,551.25
2017-11-19T07:57:32.308Z,618.75
2017-11-19T07:59:26.433Z,675.00
2017-11-19T08:00:25.859Z,652.50
2017-11-19T08:02:31.140Z,646.88
2017-11-19T08:03:31.613Z,658.13
2017-11-19T08:05:24.768Z,697.50
2017-11-19T08:06:24.650Z,720.00
2017-11-19T08:08:17.805Z,793.13
2017-11-19T08:09:17.736Z,804.38
2017-11-19T08:11:10.844Z,832.50
2017-11-19T08:12:10.767Z,781.88
2017-11-19T08:14:03.905Z,731.25
2017-11-19T08:15:03.849Z,742.50
2017-11-19T08:16:57.521Z,714.38
2017-11-19T08:17:56.894Z,708.75
2017-11-19T08:18:57.363Z,658.13
2017-11-19T08:19:56.836Z,601.88
2017-11-19T08:20:56.767Z,596.25
2017-11-19T08:21:56.722Z,601.88
2017-11-19T08:22:56.645Z,601.88
2017-11-19T08:23:56.546Z,596.25
2017-11-19T08:24:56.593Z,601.88
2017-11-19T08:25:56.560Z,624.38
2017-11-19T08:26:56.995Z,635.63
2017-11-19T08:27:56.458Z,613.13
2017-11-19T08:28:56.443Z,607.50
2017-11-19T08:29:57.121Z,596.25
2017-11-19T08:30:56.296Z,613.13
2017-11-19T08:31:56.276Z,680.63
2017-11-19T08:32:56.239Z,742.50
2017-11-19T08:33:56.637Z,849.38
2017-11-19T08:34:57.116Z,759.38
2017-11-19T08:35:56.577Z,736.88
2017-11-19T08:36:56.603Z,731.25
2017-11-19T08:37:55.979Z,990.00
2017-11-19T08:38:56.488Z,877.50
2017-11-19T08:39:55.881Z,1096.88
2017-11-19T08:40:55.859Z,1091.25
2017-11-19T08:41:55.857Z,1102.50
2017-11-19T08:42:55.823Z,1175.63
2017-11-19T08:43:56.267Z,866.25
2017-11-19T08:44:55.691Z,1288.13
2017-11-19T08:45:55.644Z,1057.50
2017-11-19T08:46:55.574Z,832.50
2017-11-19T08:47:55.613Z,855.00
2017-11-19T08:48:55.525Z,894.38
2017-11-19T08:49:55.517Z,871.88
2017-11-19T08:50:55.967Z,945.00
2017-11-19T08:51:55.929Z,1063.13
2017-11-19T08:52:55.858Z,1186.88
2017-11-19T08:53:55.826Z,1029.38
2017-11-19T08:54:55.262Z,849.38
2017-11-19T08:55:55.286Z,787.50
2017-11-19T08:56:55.256Z,810.00
2017-11-19T08:57:55.199Z,663.75
2017-11-19T08:58:55.596Z,635.63
2017-11-19T08:59:55.103Z,590.63
2017-11-19T09:00:55.416Z,556.88
2017-11-19T09:01:57.971Z,601.88
2017-11-19T09:02:56.846Z,590.63
2017-11-19T09:03:57.349Z,528.75
2017-11-19T09:04:58.211Z,506.25
2017-11-19T09:05:56.566Z,506.25
2017-11-19T09:06:56.121Z,601.88
2017-11-19T09:07:58.096Z,714.38
2017-11-19T09:08:56.461Z,579.38
2017-11-19T09:09:56.306Z,528.75
2017-11-19T09:10:57.392Z,523.13
2017-11-19T09:11:57.145Z,517.50
2017-11-19T09:12:58.851Z,461.25
2017-11-19T09:13:56.504Z,416.25
2017-11-19T09:14:56.339Z,376.88
2017-11-19T09:15:57.905Z,360.00
2017-11-19T09:16:57.936Z,410.63
2017-11-19T09:17:55.284Z,472.50
2017-11-19T09:18:56.962Z,579.38
2017-11-19T09:19:55.679Z,590.63
2017-11-19T09:20:55.176Z,528.75
2017-11-19T09:21:59.036Z,511.88
2017-11-19T09:22:55.813Z,534.38
2017-11-19T09:23:57.393Z,601.88
2017-11-19T09:24:58.148Z,720.00
2017-11-19T09:25:55.642Z,804.38
2017-11-19T09:26:56.504Z,680.63
2017-11-19T09:27:57.011Z,568.13
2017-11-19T09:28:56.664Z,540.00
2017-11-19T09:29:56.893Z,556.88
2017-11-19T09:30:56.271Z,450.00
2017-11-19T09:31:57.900Z,455.63
2017-11-19T09:32:56.876Z,523.13
2017-11-19T09:33:55.319Z,466.88
2017-11-19T09:34:56.912Z,421.88
2017-11-19T09:35:56.385Z,388.13
2017-11-19T09:36:55.516Z,399.38
2017-11-19T09:37:55.094Z,444.38
2017-11-19T09:38:56.346Z,517.50
2017-11-19T09:39:56.165Z,618.75
2017-11-19T09:40:54.250Z,731.25
2017-11-19T09:41:57.349Z,826.88
2017-11-19T09:42:58.359Z,798.75
2017-11-19T09:43:55.507Z,759.38
2017-11-19T09:44:56.892Z,798.75
2017-11-19T09:45:55.966Z,916.88
2017-11-19T09:46:58.116Z,1164.38
2017-11-19T09:47:55.152Z,1350.00
2017-11-19T09:48:53.638Z,1074.38
2017-11-19T09:49:56.685Z,731.25
2017-11-19T09:50:55.358Z,472.50
2017-11-19T09:51:55.609Z,562.50
2017-11-19T09:52:54.040Z,613.13
2017-11-19T09:53:58.660Z,523.13
2017-11-19T09:54:55.837Z,444.38
2017-11-19T09:55:55.902Z,455.63
2017-11-19T09:56:55.099Z,489.38
2017-11-19T09:57:57.506Z,500.63
2017-11-19T09:58:56.204Z,461.25
2017-11-19T09:59:52.651Z,534.38
2017-11-19T10:00:53.463Z,506.25
2017-11-19T10:01:55.171Z,450.00
2017-11-19T10:02:55.734Z,382.50
2017-11-19T10:03:54.168Z,371.25
2017-11-19T10:04:54.987Z,376.88
2017-11-19T10:05:54.911Z,540.00
2017-11-19T10:06:52.958Z,675.00
2017-11-19T10:07:56.442Z,776.25
2017-11-19T10:08:56.939Z,630.00
2017-11-19T10:09:55.389Z,495.00
2017-11-19T10:10:55.613Z,483.75
2017-11-19T10:11:54.319Z,461.25
2017-11-19T10:12:54.225Z,472.50
2017-11-19T10:13:54.636Z,534.38
2017-11-19T10:14:54.322Z,545.63
2017-11-19T10:15:55.865Z,511.88
2017-11-19T10:16:54.932Z,534.38
2017-11-19T10:17:52.930Z,703.13
2017-11-19T10:18:54.078Z,787.50
2017-11-19T10:19:53.151Z,871.88
2017-11-19T10:20:56.164Z,826.88
2017-11-19T10:21:54.920Z,843.75
2017-11-19T10:22:54.383Z,855.00
2017-11-19T10:23:55.890Z,950.63
2017-11-19T10:24:57.658Z,1091.25
2017-11-19T10:25:54.037Z,1141.88
2017-11-19T10:26:59.498Z,1068.75
2017-11-19T10:27:53.949Z,1243.13
2017-11-19T10:28:52.585Z,1372.50
2017-11-19T10:29:57.373Z,2306.25
2017-11-19T10:30:53.505Z,781.88
2017-11-19T10:31:54.450Z,624.38
2017-11-19T10:34:02.327Z,472.50
2017-11-19T10:34:57.583Z,528.75
2017-11-19T10:35:58.155Z,641.25
2017-11-19T10:36:53.038Z,646.88
2017-11-19T10:37:53.722Z,618.75
2017-11-19T10:38:50.703Z,613.13
2017-11-19T10:39:52.154Z,652.50
2017-11-19T10:40:50.859Z,613.13
2017-11-19T10:41:53.156Z,652.50
2017-11-19T10:42:56.150Z,663.75
2017-11-19T10:43:53.395Z,652.50
2017-11-19T10:44:53.450Z,635.63
2017-11-19T10:45:53.350Z,624.38
2017-11-19T10:46:57.210Z,590.63
2017-11-19T10:47:50.852Z,787.50
2017-11-19T10:48:52.291Z,1102.50
2017-11-19T10:49:52.701Z,1248.75
2017-11-19T10:50:52.417Z,1406.25
2017-11-19T10:51:54.175Z,1417.50
2017-11-19T10:52:53.605Z,1833.75
2017-11-19T10:53:55.576Z,1091.25
2017-11-19T10:54:58.116Z,753.75
2017-11-19T10:56:00.296Z,540.00
2017-11-19T10:56:52.129Z,562.50
2017-11-19T10:57:51.886Z,562.50
2017-11-19T10:58:52.931Z,562.50
2017-11-19T10:59:51.763Z,517.50
2017-11-19T11:00:53.251Z,483.75
2017-11-19T11:01:53.778Z,421.88
2017-11-19T11:02:55.583Z,348.75
2017-11-19T11:03:54.315Z,337.50
2017-11-19T11:04:51.796Z,438.75
2017-11-19T11:05:54.449Z,568.13
2017-11-19T11:06:54.831Z,545.63
2017-11-19T11:07:58.318Z,523.13
2017-11-19T11:08:52.421Z,585.00
2017-11-19T11:09:49.542Z,669.38
2017-11-19T11:10:50.132Z,590.63
2017-11-19T11:11:49.402Z,562.50
2017-11-19T11:12:50.017Z,528.75
2017-11-19T11:13:49.850Z,405.00
2017-11-19T11:14:49.339Z,376.88
2017-11-19T11:15:52.588Z,416.25
2017-11-19T11:16:51.681Z,478.13
2017-11-19T11:17:52.972Z,472.50
2017-11-19T11:18:50.832Z,478.13
2017-11-19T11:19:51.083Z,618.75
2017-11-19T11:20:52.462Z,787.50
2017-11-19T11:21:53.817Z,894.38
2017-11-19T11:22:51.112Z,950.63
2017-11-19T11:23:51.654Z,720.00
2017-11-19T11:24:50.651Z,607.50
2017-11-19T11:25:50.461Z,590.63
2017-11-19T11:26:53.112Z,618.75
2017-11-19T11:27:51.528Z,641.25
2017-11-19T11:28:51.772Z,573.75
2017-11-19T11:29:51.111Z,438.75
2017-11-19T11:30:51.784Z,511.88
2017-11-19T11:31:50.536Z,601.88
2017-11-19T11:32:50.661Z,556.88
2017-11-19T11:33:53.526Z,725.63
2017-11-19T11:34:49.151Z,1653.75
2017-11-19T11:35:50.708Z,945.00
2017-11-19T11:36:48.923Z,1012.50
2017-11-19T11:37:49.017Z,1029.38
2017-11-19T11:38:51.430Z,990.00
2017-11-19T11:39:48.946Z,810.00
2017-11-19T11:40:48.573Z,742.50
2017-11-19T11:41:48.618Z,613.13
2017-11-19T11:42:48.537Z,500.63
2017-11-19T11:43:48.023Z,405.00
2017-11-19T11:44:47.993Z,360.00
2017-11-19T11:45:48.072Z,365.63
2017-11-19T11:46:48.600Z,354.38
2017-11-19T11:47:47.819Z,410.63
2017-11-19T11:48:47.882Z,483.75
2017-11-19T11:49:47.828Z,562.50
2017-11-19T11:50:48.257Z,568.13
2017-11-19T11:51:48.462Z,646.88
2017-11-19T11:52:47.617Z,624.38
2017-11-19T11:53:47.609Z,495.00
2017-11-19T11:54:48.472Z,388.13
2017-11-19T11:56:42.131Z,264.38
2017-11-19T11:57:42.322Z,236.25
2017-11-19T11:59:35.217Z,213.75
2017-11-19T12:00:35.106Z,202.50
2017-11-19T12:02:28.919Z,196.88
2017-11-19T12:03:28.781Z,196.88
2017-11-19T12:05:21.832Z,202.50
2017-11-19T12:06:22.258Z,219.38
2017-11-19T12:08:15.980Z,281.25
2017-11-19T12:09:15.319Z,309.38
2017-11-19T12:11:09.141Z,247.50
2017-11-19T12:12:08.385Z,213.75
2017-11-19T12:14:01.582Z,202.50
2017-11-19T12:15:01.439Z,174.38
2017-11-19T12:16:55.140Z,157.50
2017-11-19T12:17:54.486Z,163.13
2017-11-19T12:19:47.665Z,180.00
2017-11-19T12:20:48.113Z,174.38
2017-11-19T12:22:40.943Z,151.88
2017-11-19T12:23:41.043Z,180.00
2017-11-19T12:25:33.777Z,213.75
2017-11-19T12:26:33.701Z,180.00
2017-11-19T12:28:26.798Z,146.25
2017-11-19T12:29:26.678Z,140.63
2017-11-19T12:31:19.902Z,140.63
2017-11-19T12:32:19.790Z,163.13
2017-11-19T12:34:12.924Z,157.50
2017-11-19T12:35:12.874Z,146.25
2017-11-19T12:37:06.023Z,151.88
2017-11-19T12:38:05.882Z,140.63
2017-11-19T12:39:59.571Z,146.25
2017-11-19T12:40:59.504Z,157.50
2017-11-19T12:42:53.097Z,146.25
2017-11-19T12:43:52.453Z,163.13
2017-11-19T12:45:47.782Z,174.38
2017-11-19T12:46:47.754Z,191.25
2017-11-19T12:48:41.434Z,191.25
2017-11-19T12:49:41.296Z,185.63
2017-11-19T12:51:35.692Z,241.88
2017-11-19T12:52:35.633Z,219.38
2017-11-19T12:54:28.863Z,174.38
2017-11-19T12:55:28.869Z,151.88
2017-11-19T12:57:23.353Z,112.50
2017-11-19T12:58:23.859Z,112.50
2017-11-19T13:00:16.971Z,118.13
2017-11-19T13:01:17.356Z,112.50
2017-11-19T13:03:10.531Z,101.25
2017-11-19T13:04:09.899Z,112.50
2017-11-19T13:06:07.629Z,163.13
2017-11-19T13:07:07.522Z,225.00
2017-11-19T13:09:00.642Z,343.13
2017-11-19T13:10:00.533Z,405.00
2017-11-19T13:11:54.245Z,348.75
2017-11-19T13:12:53.627Z,315.00
2017-11-19T13:14:48.267Z,292.50
2017-11-19T13:15:48.176Z,236.25
2017-11-19T13:17:41.380Z,213.75
2017-11-19T13:18:41.265Z,281.25
2017-11-19T13:20:34.415Z,365.63
2017-11-19T13:21:34.306Z,365.63
2017-11-19T13:23:29.047Z,258.75
2017-11-19T13:24:29.393Z,213.75
2017-11-19T13:26:22.017Z,230.63
2017-11-19T13:27:21.943Z,236.25
2017-11-19T13:29:16.152Z,343.13
2017-11-19T13:30:15.491Z,281.25
2017-11-19T13:32:08.738Z,270.00
2017-11-19T13:33:08.930Z,320.63
2017-11-19T13:35:02.064Z,298.13
2017-11-19T13:36:01.689Z,270.00
2017-11-19T13:37:54.754Z,185.63
2017-11-19T13:38:54.675Z,180.00
2017-11-19T13:40:48.377Z,225.00
2017-11-19T13:41:48.357Z,213.75
2017-11-19T13:43:41.393Z,191.25
2017-11-19T13:44:41.401Z,157.50
2017-11-19T13:46:34.599Z,163.13
2017-11-19T13:47:34.436Z,185.63
2017-11-19T13:49:28.095Z,258.75
2017-11-19T13:50:27.976Z,264.38
2017-11-19T13:52:21.743Z,225.00
2017-11-19T13:53:21.675Z,213.75
2017-11-19T13:55:16.222Z,174.38
2017-11-19T13:56:16.124Z,168.75
2017-11-19T13:58:20.033Z,191.25
2017-11-19T13:59:20.416Z,157.50
2017-11-19T14:01:13.048Z,151.88
2017-11-19T14:02:12.986Z,202.50
2017-11-19T14:04:06.681Z,275.63
2017-11-19T14:05:06.086Z,275.63
2017-11-19T14:06:59.288Z,225.00
2017-11-19T14:07:59.243Z,196.88
2017-11-19T14:09:52.873Z,219.38
2017-11-19T14:10:53.228Z,196.88
2017-11-19T14:12:46.419Z,191.25
2017-11-19T14:13:46.348Z,168.75
2017-11-19T14:15:41.086Z,123.75
2017-11-19T14:16:40.965Z,123.75
2017-11-19T14:18:37.027Z,202.50
2017-11-19T14:19:37.463Z,202.50
2017-11-19T14:21:30.649Z,180.00
2017-11-19T14:22:30.540Z,146.25
2017-11-19T14:24:24.197Z,168.75
2017-11-19T14:25:24.092Z,185.63
2017-11-19T14:27:16.742Z,157.50
2017-11-19T14:28:16.657Z,140.63
2017-11-19T14:30:09.775Z,95.63
2017-11-19T14:31:09.725Z,95.63
2017-11-19T14:33:03.639Z,146.25
2017-11-19T14:34:02.766Z,129.38
2017-11-19T14:35:56.367Z,106.88
2017-11-19T14:36:56.276Z,112.50
2017-11-19T14:38:50.549Z,90.00
2017-11-19T14:39:50.370Z,106.88
2017-11-19T14:40:49.842Z,123.75
2017-11-19T14:41:49.824Z,135.00
2017-11-19T14:42:49.711Z,146.25
2017-11-19T14:43:50.200Z,146.25
2017-11-19T14:44:49.679Z,157.50
2017-11-19T14:45:49.617Z,157.50
2017-11-19T14:46:50.058Z,135.00
2017-11-19T14:47:49.563Z,90.00
2017-11-19T14:48:49.545Z,84.38
2017-11-19T14:49:49.478Z,78.75
2017-11-19T14:50:49.828Z,78.75
2017-11-19T14:51:49.877Z,73.13
2017-11-19T14:52:49.858Z,61.88
2017-11-19T14:53:49.269Z,73.13
2017-11-19T14:54:49.564Z,67.50
2017-11-19T14:55:49.221Z,61.88
2017-11-19T14:56:49.084Z,67.50
2017-11-19T14:57:49.088Z,67.50
2017-11-19T14:58:49.069Z,73.13
2017-11-19T14:59:48.949Z,67.50
2017-11-19T15:00:48.980Z,56.25
2017-11-19T15:01:48.911Z,56.25
2017-11-19T15:02:48.912Z,56.25
2017-11-19T15:03:49.679Z,39.38
2017-11-19T15:04:49.286Z,39.38
2017-11-19T15:05:48.798Z,39.38
2017-11-19T15:06:48.737Z,39.38
2017-11-19T15:07:49.152Z,33.75
2017-11-19T15:08:48.641Z,28.13
2017-11-19T15:09:48.551Z,28.13
2017-11-19T15:10:48.523Z,28.13
2017-11-19T15:11:48.540Z,28.13
2017-11-19T15:12:48.503Z,28.13
2017-11-19T15:13:49.148Z,22.50
2017-11-19T15:14:48.326Z,16.88
2017-11-19T15:15:48.299Z,16.88
2017-11-19T15:16:48.322Z,11.25
2017-11-19T15:17:48.245Z,11.25
2017-11-19T15:18:48.200Z,11.25
2017-11-19T15:19:48.166Z,5.63
2017-11-19T15:20:48.129Z,11.25
2017-11-19T15:21:47.977Z,11.25
2017-11-19T15:22:48.065Z,11.25
2017-11-19T15:23:47.970Z,11.25
2017-11-19T15:24:47.891Z,11.25
2017-11-19T15:25:47.918Z,5.63
2017-11-19T15:26:47.913Z,11.25
2017-11-19T15:27:47.829Z,5.63
2017-11-19T15:28:47.973Z,5.63
2017-11-19T15:29:47.665Z,5.63
2017-11-19T15:30:47.709Z,5.63
2017-11-19T15:31:47.584Z,5.63
2017-11-19T15:32:47.600Z,5.63
2017-11-19T15:33:47.541Z,0.00
2017-11-19T15:34:47.473Z,0.00
2017-11-19T15:35:47.489Z,5.63
2017-11-19T15:36:47.424Z,0.00
2017-11-19T15:37:47.391Z,0.00
2017-11-19T15:38:47.739Z,0.00
2017-11-19T15:39:47.267Z,0.00
2017-11-19T15:40:47.362Z,0.00
2017-11-19T15:41:46.960Z,0.00
2017-11-19T15:42:46.702Z,0.00
2017-11-19T15:43:46.708Z,0.00
2017-11-19T15:44:46.595Z,0.00
2017-11-19T15:45:46.537Z,0.00
2017-11-19T15:46:46.529Z,0.00
2017-11-19T15:47:46.516Z,0.00
2017-11-19T15:48:46.488Z,0.00
2017-11-19T15:49:46.362Z,0.00
2017-11-19T15:50:46.331Z,0.00
2017-11-19T15:51:46.288Z,0.00
2017-11-19T15:52:46.262Z,0.00
2017-11-19T15:53:46.211Z,0.00
2017-11-19T15:54:46.194Z,0.00
2017-11-19T15:55:46.115Z,0.00
2017-11-19T15:56:46.079Z,0.00
2017-11-19T15:57:46.034Z,0.00
2017-11-19T15:58:46.011Z,0.00
2017-11-19T15:59:45.946Z,0.00
2017-11-19T16:00:45.891Z,0.00
2017-11-19T16:01:45.855Z,0.00
2017-11-19T16:02:45.826Z,0.00
2017-11-19T16:03:45.759Z,0.00
2017-11-19T16:04:45.727Z,0.00
2017-11-19T16:05:45.671Z,0.00
2017-11-19T16:06:45.623Z,0.00
2017-11-19T16:07:45.596Z,0.00
2017-11-19T16:08:45.534Z,0.00
2017-11-19T16:09:45.516Z,0.00
2017-11-19T16:10:45.473Z,0.00
2017-11-19T16:11:45.411Z,0.00
2017-11-19T16:12:45.370Z,0.00
2017-11-19T16:13:45.370Z,0.00
2017-11-19T16:14:45.276Z,0.00